Weather at Presque Isle County Airport

Public forecast

Using degrees Fahrenheit for public forecast. Weather courtesy of forecast.io.

Current aviation weather report (METAR) for Presque Isle County Airport

Retrieved 2022/01/24 20:15 UTC (13 minutes ago):

KPZQ 242015Z AUTO 33007KT 5SM -SN SCT019 OVC025 M07/M11 A2962 RMK AO2 T10721109

Closest aviation forecast (TAF) to Presque Isle County Airport

Closest forecast is Alpena County Regional Airport, 22.5 nm (41.6 km) SSE. Retrieved 2022/01/24 18:39 UTC (2 hours ago):

TAF KAPN 241737Z 2418/2518 20006KT P6SM OVC080 FM241900 22006KT P6SM VCSH OVC021 FM242300 31005KT P6SM VCSH BKN035 FM250600 31006KT P6SM SCT060 FM251400 31005KT P6SM BKN035